createdAt,value
2018-10-02T00:00:14.101Z,1.70
2018-10-02T00:02:43.243Z,1.57
2018-10-02T00:05:12.326Z,1.50
2018-10-02T00:07:41.419Z,1.50
2018-10-02T00:10:10.493Z,1.43
2018-10-02T00:12:44.630Z,1.30
2018-10-02T00:15:13.747Z,1.67
2018-10-02T00:17:42.830Z,1.60
2018-10-02T00:20:11.965Z,1.73
2018-10-02T00:22:41.076Z,1.40
2018-10-02T00:25:10.209Z,1.80
2018-10-02T00:27:39.356Z,1.57
2018-10-02T00:30:08.477Z,1.60
2018-10-02T00:32:37.589Z,1.83
2018-10-02T00:35:07.045Z,1.80
2018-10-02T00:37:36.166Z,2.17
2018-10-02T00:40:05.410Z,1.80
2018-10-02T00:42:34.595Z,1.83
2018-10-02T00:45:03.637Z,1.33
2018-10-02T00:47:32.753Z,1.70
2018-10-02T00:50:01.875Z,1.57
2018-10-02T00:52:30.990Z,1.70
2018-10-02T00:55:00.077Z,1.80
2018-10-02T00:57:29.133Z,1.53
2018-10-02T00:59:58.232Z,1.70
2018-10-02T01:02:27.213Z,1.70
2018-10-02T01:04:56.313Z,1.90
2018-10-02T01:07:25.374Z,1.83
2018-10-02T01:09:54.413Z,1.90
2018-10-02T01:12:23.504Z,1.80
2018-10-02T01:14:52.605Z,2.43
2018-10-02T01:17:21.657Z,1.93
2018-10-02T01:19:50.757Z,2.03
2018-10-02T01:22:19.832Z,2.20
2018-10-02T01:24:49.349Z,2.47
2018-10-02T01:27:18.461Z,2.13
2018-10-02T01:29:47.589Z,2.60
2018-10-02T01:32:16.725Z,2.67
2018-10-02T01:34:45.832Z,2.80
2018-10-02T01:37:14.920Z,2.13
2018-10-02T01:39:44.005Z,2.53
2018-10-02T01:42:13.120Z,2.53
2018-10-02T01:44:42.204Z,2.83
2018-10-02T01:47:11.201Z,3.33
2018-10-02T01:49:40.301Z,3.17
2018-10-02T01:52:09.350Z,3.00
2018-10-02T01:54:38.424Z,2.80
2018-10-02T01:57:07.857Z,3.13
2018-10-02T01:59:36.931Z,3.30
2018-10-02T02:02:06.033Z,3.37
2018-10-02T02:04:35.177Z,3.83
2018-10-02T02:07:04.293Z,4.50
2018-10-02T02:09:33.434Z,4.00
2018-10-02T02:12:02.933Z,3.70
2018-10-02T02:14:32.444Z,4.40
2018-10-02T02:17:01.493Z,4.00
2018-10-02T02:19:30.660Z,3.97
2018-10-02T02:21:59.793Z,3.80
2018-10-02T02:24:28.911Z,4.67
2018-10-02T02:26:58.033Z,5.23
2018-10-02T02:29:27.252Z,5.37
2018-10-02T02:31:56.394Z,5.77
2018-10-02T02:34:25.500Z,6.03
2018-10-02T02:36:54.570Z,5.40
2018-10-02T02:39:23.689Z,5.60
2018-10-02T02:41:52.737Z,6.00
2018-10-02T02:44:21.921Z,5.67
2018-10-02T02:46:51.006Z,6.30
2018-10-02T02:49:25.246Z,5.77
2018-10-02T02:51:54.320Z,6.07
2018-10-02T02:54:23.368Z,5.50
2018-10-02T02:56:52.332Z,6.67
2018-10-02T02:59:21.445Z,6.30
2018-10-02T03:01:50.540Z,6.40
2018-10-02T03:04:19.577Z,5.97
2018-10-02T03:06:48.647Z,6.57
2018-10-02T03:09:17.742Z,5.47
2018-10-02T03:11:46.749Z,5.80
2018-10-02T03:14:15.833Z,5.90
2018-10-02T03:16:45.216Z,6.30
2018-10-02T03:19:14.380Z,6.20
2018-10-02T03:21:43.518Z,5.73
2018-10-02T03:24:12.623Z,6.60
2018-10-02T03:26:43.728Z,6.50
2018-10-02T03:29:12.862Z,6.37
2018-10-02T03:31:42.031Z,5.87
2018-10-02T03:34:11.081Z,6.23
2018-10-02T03:36:40.501Z,7.07
2018-10-02T03:39:10.050Z,6.53
2018-10-02T03:41:39.450Z,6.80
2018-10-02T03:44:08.764Z,6.63
2018-10-02T03:46:37.838Z,6.30
2018-10-02T03:49:07.106Z,6.13
2018-10-02T03:51:36.221Z,6.23
2018-10-02T03:54:05.430Z,5.87
2018-10-02T03:56:34.525Z,6.40
2018-10-02T03:59:03.833Z,6.50
2018-10-02T04:01:33.145Z,6.53
2018-10-02T04:04:03.129Z,7.00
2018-10-02T04:06:32.201Z,6.73
2018-10-02T04:09:01.295Z,6.60
2018-10-02T04:11:30.377Z,6.40
2018-10-02T04:13:59.479Z,6.60
2018-10-02T04:16:28.594Z,6.80
2018-10-02T04:18:57.736Z,6.30
2018-10-02T04:21:33.418Z,6.57
2018-10-02T04:24:03.864Z,6.30
2018-10-02T04:26:33.468Z,6.57
2018-10-02T04:29:03.121Z,6.67
2018-10-02T04:31:33.317Z,6.50
2018-10-02T04:34:02.583Z,6.50
2018-10-02T04:36:31.701Z,6.50
2018-10-02T04:39:00.884Z,7.13
2018-10-02T04:41:29.962Z,7.10
2018-10-02T04:43:59.201Z,7.13
2018-10-02T04:46:28.337Z,6.60
2018-10-02T04:48:57.325Z,6.63
2018-10-02T04:51:26.429Z,6.67
2018-10-02T04:53:55.464Z,6.33
2018-10-02T04:56:24.675Z,6.67
2018-10-02T05:01:58.484Z,6.27
2018-10-02T05:04:27.891Z,6.40
2018-10-02T05:06:57.006Z,6.43
2018-10-02T05:09:26.137Z,6.30
2018-10-02T05:11:55.239Z,6.20
2018-10-02T05:14:24.351Z,5.97
2018-10-02T05:16:53.492Z,5.70
2018-10-02T05:19:22.654Z,6.37
2018-10-02T05:21:51.744Z,5.80
2018-10-02T05:24:20.777Z,6.10
2018-10-02T05:26:49.870Z,6.13
2018-10-02T05:29:18.927Z,5.60
2018-10-02T05:31:48.089Z,5.70
2018-10-02T05:34:17.188Z,5.23
2018-10-02T05:36:46.297Z,5.90
2018-10-02T05:39:15.406Z,5.10
2018-10-02T05:41:44.497Z,5.17
2018-10-02T05:44:13.610Z,5.43
2018-10-02T05:46:42.809Z,5.93
2018-10-02T05:49:11.878Z,4.93
2018-10-02T05:51:41.002Z,4.90
2018-10-02T05:54:10.037Z,4.90
2018-10-02T05:56:39.199Z,5.37
2018-10-02T05:59:08.254Z,4.80
2018-10-02T06:01:37.409Z,4.93
2018-10-02T06:04:06.498Z,5.07
2018-10-02T06:06:35.605Z,5.37
2018-10-02T06:09:06.684Z,4.80
2018-10-02T06:11:35.865Z,5.37
2018-10-02T06:14:05.122Z,5.00
2018-10-02T06:16:34.116Z,4.80
2018-10-02T06:19:03.262Z,4.47
2018-10-02T06:21:32.693Z,5.00
2018-10-02T06:24:01.803Z,4.20
2018-10-02T06:26:30.914Z,4.67
2018-10-02T06:29:00.003Z,5.47
2018-10-02T06:31:29.146Z,4.50
2018-10-02T06:33:58.239Z,4.03
2018-10-02T06:36:27.405Z,4.67
2018-10-02T06:38:56.540Z,4.33
2018-10-02T06:41:25.921Z,4.33
2018-10-02T06:43:55.304Z,4.07
2018-10-02T06:46:24.727Z,3.30
2018-10-02T06:48:54.189Z,3.83
2018-10-02T06:51:23.783Z,4.13
2018-10-02T06:53:53.142Z,3.80
2018-10-02T06:56:22.286Z,4.10
2018-10-02T06:58:51.513Z,3.87
2018-10-02T07:01:20.611Z,3.90
2018-10-02T07:03:49.686Z,3.77
2018-10-02T07:06:18.796Z,4.37
2018-10-02T07:08:47.937Z,3.60
2018-10-02T07:11:17.022Z,3.70
2018-10-02T07:13:46.100Z,3.90
2018-10-02T07:16:15.150Z,3.90
2018-10-02T07:18:44.234Z,4.40
2018-10-02T07:21:13.272Z,4.40
2018-10-02T07:23:42.371Z,3.90
2018-10-02T07:26:11.902Z,4.20
2018-10-02T07:28:41.045Z,3.70
2018-10-02T07:31:10.186Z,4.43
2018-10-02T07:33:39.585Z,3.73
2018-10-02T07:36:08.782Z,4.03
2018-10-02T07:38:37.882Z,4.27
2018-10-02T07:41:07.003Z,3.77
2018-10-02T07:43:36.358Z,3.77
2018-10-02T07:46:05.417Z,3.63
2018-10-02T07:48:34.625Z,3.73
2018-10-02T07:51:03.756Z,3.57
2018-10-02T07:53:32.775Z,3.63
2018-10-02T07:56:01.947Z,4.00
2018-10-02T07:58:31.067Z,3.37
2018-10-02T08:01:00.155Z,3.77
2018-10-02T08:03:29.489Z,3.80
2018-10-02T08:05:58.648Z,3.60
2018-10-02T08:08:27.940Z,3.60
2018-10-02T08:10:57.086Z,3.37
2018-10-02T08:13:26.205Z,3.80
2018-10-02T08:15:55.362Z,3.20
2018-10-02T08:18:24.465Z,3.47
2018-10-02T08:20:53.585Z,3.17
2018-10-02T08:23:22.804Z,3.83
2018-10-02T08:25:51.965Z,3.67
2018-10-02T08:28:21.999Z,5.13
2018-10-02T08:30:51.455Z,4.40
2018-10-02T08:33:26.565Z,5.03
2018-10-02T08:35:55.875Z,4.07
2018-10-02T08:38:24.750Z,4.50
2018-10-02T08:40:53.799Z,4.30
2018-10-02T08:43:22.847Z,3.80
2018-10-02T08:45:52.721Z,4.03
2018-10-02T08:48:21.848Z,4.33
2018-10-02T08:50:50.955Z,3.90
2018-10-02T08:53:20.137Z,4.33
2018-10-02T08:55:49.168Z,4.00
2018-10-02T08:58:18.301Z,4.10
2018-10-02T09:00:47.481Z,3.67
2018-10-02T09:03:16.564Z,3.37
2018-10-02T09:05:45.825Z,3.80
2018-10-02T09:08:14.869Z,3.50
2018-10-02T09:10:43.905Z,3.33
2018-10-02T09:13:13.074Z,3.57
2018-10-02T09:15:42.174Z,3.67
2018-10-02T09:18:11.145Z,3.23
2018-10-02T09:20:40.173Z,3.93
2018-10-02T09:23:09.254Z,3.40
2018-10-02T09:25:38.273Z,3.43
2018-10-02T09:28:07.504Z,3.57
2018-10-02T09:30:41.675Z,3.80
2018-10-02T09:33:15.919Z,3.80
2018-10-02T09:35:50.253Z,4.17
2018-10-02T09:38:24.546Z,3.93
2018-10-02T09:40:58.784Z,3.80
2018-10-02T09:43:33.243Z,3.53
2018-10-02T09:46:02.439Z,4.60
2018-10-02T09:48:31.510Z,4.17
2018-10-02T09:51:00.683Z,4.20
2018-10-02T09:53:29.686Z,4.10
2018-10-02T09:55:58.786Z,4.10
2018-10-02T09:58:27.949Z,3.80
2018-10-02T10:01:02.254Z,3.90
2018-10-02T10:03:31.270Z,3.43
2018-10-02T10:06:00.342Z,3.40
2018-10-02T10:08:29.422Z,2.53
2018-10-02T10:10:58.495Z,3.30
2018-10-02T10:13:27.651Z,2.77
2018-10-02T10:15:56.737Z,2.67
2018-10-02T10:18:25.845Z,2.93
2018-10-02T10:20:54.931Z,2.43
2018-10-02T10:23:23.953Z,2.70
2018-10-02T10:25:53.036Z,2.53
2018-10-02T10:28:22.132Z,2.30
2018-10-02T10:30:51.449Z,1.90
2018-10-02T10:33:20.578Z,2.30
2018-10-02T10:35:49.689Z,2.33
2018-10-02T10:38:18.741Z,1.80
2018-10-02T10:40:47.829Z,2.00
2018-10-02T10:43:17.209Z,2.17
2018-10-02T10:45:46.285Z,1.90
2018-10-02T10:48:15.685Z,2.20
2018-10-02T10:50:45.267Z,2.10
2018-10-02T10:53:14.706Z,1.90
2018-10-02T10:55:44.116Z,1.57
2018-10-02T10:58:13.197Z,2.00
2018-10-02T11:00:42.341Z,1.70
2018-10-02T11:03:11.465Z,1.80
2018-10-02T11:05:40.513Z,1.83
2018-10-02T11:08:09.608Z,1.87
2018-10-02T11:10:38.555Z,2.10
2018-10-02T11:13:07.704Z,1.50
2018-10-02T11:15:36.795Z,1.23
2018-10-02T11:18:05.979Z,1.30
2018-10-02T11:20:36.565Z,1.37
2018-10-02T11:23:05.714Z,1.80
2018-10-02T11:25:34.758Z,1.60
2018-10-02T11:28:03.873Z,1.43
2018-10-02T11:30:33.014Z,1.73
2018-10-02T11:33:02.017Z,1.57
2018-10-02T11:35:31.074Z,1.50
2018-10-02T11:38:00.070Z,1.63
2018-10-02T11:40:29.151Z,2.20
2018-10-02T11:42:58.334Z,1.43
2018-10-02T11:45:27.355Z,1.50
2018-10-02T11:47:56.405Z,1.80
2018-10-02T11:50:25.602Z,1.83
2018-10-02T11:52:54.762Z,1.37
2018-10-02T11:55:23.851Z,1.50
2018-10-02T11:57:52.986Z,1.60
2018-10-02T12:00:22.136Z,1.73
2018-10-02T12:02:51.187Z,1.60
2018-10-02T12:05:20.273Z,1.63
2018-10-02T12:07:49.383Z,2.27
2018-10-02T12:10:18.466Z,1.70
2018-10-02T12:12:47.609Z,1.80
2018-10-02T12:15:16.788Z,1.50
2018-10-02T12:17:45.883Z,1.60
2018-10-02T12:20:14.961Z,1.50
2018-10-02T12:22:43.997Z,1.40
2018-10-02T12:25:13.067Z,1.37
2018-10-02T12:27:42.218Z,1.50
2018-10-02T12:30:11.260Z,1.67
2018-10-02T12:32:40.301Z,1.60
2018-10-02T12:35:09.409Z,1.10
2018-10-02T12:37:38.445Z,1.50
2018-10-02T12:40:07.595Z,1.10
2018-10-02T12:42:36.686Z,1.20
2018-10-02T12:45:05.794Z,1.00
2018-10-02T12:47:34.858Z,0.90
2018-10-02T12:50:04.105Z,1.17
2018-10-02T12:52:33.263Z,2.00
2018-10-02T12:55:02.261Z,1.27
2018-10-02T12:57:31.338Z,1.20
2018-10-02T13:00:00.419Z,1.10
2018-10-02T13:02:29.446Z,1.10
2018-10-02T13:04:58.501Z,1.57
2018-10-02T13:07:27.605Z,1.47
2018-10-02T13:09:56.788Z,1.30
2018-10-02T13:12:25.844Z,1.43
2018-10-02T13:14:54.831Z,1.40
2018-10-02T13:17:23.825Z,1.50
2018-10-02T13:19:52.974Z,1.53
2018-10-02T13:22:22.009Z,1.43
2018-10-02T13:24:51.130Z,2.20
2018-10-02T13:27:20.169Z,1.47
2018-10-02T13:29:49.305Z,1.60
2018-10-02T13:32:18.588Z,1.83
2018-10-02T13:34:49.105Z,1.90
2018-10-02T13:37:18.372Z,1.50
2018-10-02T13:39:47.318Z,1.70
2018-10-02T13:42:16.109Z,1.33
2018-10-02T13:44:46.317Z,1.93
2018-10-02T13:47:15.100Z,2.30
2018-10-02T13:49:43.941Z,2.80
2018-10-02T13:52:12.777Z,2.07
2018-10-02T13:54:42.033Z,1.90
2018-10-02T13:57:10.930Z,1.93
2018-10-02T13:59:40.034Z,1.90
2018-10-02T14:02:09.191Z,2.03
2018-10-02T14:04:38.427Z,2.20
2018-10-02T14:07:07.644Z,1.70
2018-10-02T14:09:36.719Z,1.70
2018-10-02T14:12:05.755Z,1.73
2018-10-02T14:14:35.222Z,2.13
2018-10-02T14:17:04.599Z,2.07
2018-10-02T14:19:33.732Z,2.00
2018-10-02T14:22:02.911Z,2.00
2018-10-02T14:24:32.068Z,2.40
2018-10-02T14:27:01.478Z,2.00
2018-10-02T14:29:30.534Z,1.97
2018-10-02T14:31:59.605Z,1.73
2018-10-02T14:34:28.690Z,1.30
2018-10-02T14:36:57.773Z,1.83
2018-10-02T14:39:26.870Z,1.77
2018-10-02T14:41:55.975Z,2.00
2018-10-02T14:44:25.133Z,2.07
2018-10-02T14:46:54.293Z,2.47
2018-10-02T14:49:24.739Z,1.80
2018-10-02T14:51:53.841Z,2.13
2018-10-02T14:54:22.929Z,2.67
2018-10-02T14:56:52.241Z,2.00
2018-10-02T14:59:21.455Z,1.80
2018-10-02T15:01:50.482Z,2.33
2018-10-02T15:04:19.554Z,2.17
2018-10-02T15:06:48.508Z,1.90
2018-10-02T15:09:17.533Z,1.90
2018-10-02T15:11:46.591Z,1.93
2018-10-02T15:14:15.726Z,1.60
2018-10-02T15:16:44.906Z,1.60
2018-10-02T15:19:13.922Z,2.03
2018-10-02T15:21:43.015Z,2.10
2018-10-02T15:24:12.099Z,1.97
2018-10-02T15:26:42.080Z,1.90
2018-10-02T15:29:11.204Z,2.10
2018-10-02T15:31:40.778Z,2.00
2018-10-02T15:34:09.922Z,2.00
2018-10-02T15:36:38.982Z,1.80
2018-10-02T15:39:10.054Z,1.50
2018-10-02T15:41:40.242Z,1.80
2018-10-02T15:44:09.526Z,1.70
2018-10-02T15:46:38.901Z,1.63
2018-10-02T15:49:08.078Z,1.63
2018-10-02T15:51:37.263Z,1.70
2018-10-02T15:54:06.279Z,1.53
2018-10-02T15:56:35.413Z,1.43
2018-10-02T15:59:04.491Z,1.63
2018-10-02T16:01:33.509Z,1.87
2018-10-02T16:04:02.594Z,1.60
2018-10-02T16:06:31.678Z,1.40
2018-10-02T16:09:00.973Z,1.50
2018-10-02T16:11:30.467Z,1.20
2018-10-02T16:13:59.817Z,1.27
2018-10-02T16:16:38.956Z,1.20
2018-10-02T16:19:08.138Z,1.30
2018-10-02T16:21:37.073Z,1.23
2018-10-02T16:24:06.685Z,1.53
2018-10-02T16:26:35.895Z,1.20
2018-10-02T16:29:04.942Z,1.37
2018-10-02T16:31:34.542Z,1.37
2018-10-02T16:34:04.755Z,1.67
2018-10-02T16:36:33.964Z,2.47
2018-10-02T16:39:03.126Z,1.53
2018-10-02T16:41:32.474Z,1.40
2018-10-02T16:44:01.277Z,2.17
2018-10-02T16:46:30.099Z,1.90
2018-10-02T16:49:00.080Z,2.10
2018-10-02T16:51:29.089Z,1.77
2018-10-02T16:53:58.064Z,1.80
2018-10-02T16:56:27.128Z,1.77
2018-10-02T16:58:56.358Z,2.60
2018-10-02T17:01:25.658Z,2.13
2018-10-02T17:03:54.608Z,1.80
2018-10-02T17:06:23.551Z,1.77
2018-10-02T17:08:53.566Z,2.50
2018-10-02T17:11:22.469Z,3.10
2018-10-02T17:13:51.837Z,2.00
2018-10-02T17:16:20.879Z,3.23
2018-10-02T17:18:49.808Z,1.70
2018-10-02T17:21:18.778Z,1.50
2018-10-02T17:23:47.709Z,1.90
2018-10-02T17:26:16.521Z,1.97
2018-10-02T17:28:45.495Z,1.73
2018-10-02T17:31:14.684Z,1.70
2018-10-02T17:33:44.097Z,1.83
2018-10-02T17:36:13.072Z,1.40
2018-10-02T17:38:42.176Z,1.50
2018-10-02T17:41:11.262Z,1.60
2018-10-02T17:43:40.277Z,1.97
2018-10-02T17:46:09.212Z,1.90
2018-10-02T17:48:38.041Z,1.50
2018-10-02T17:51:06.954Z,1.67
2018-10-02T17:53:35.737Z,1.80
2018-10-02T17:56:04.693Z,1.60
2018-10-02T17:58:33.562Z,2.47
2018-10-02T18:01:09.025Z,1.70
2018-10-02T18:03:37.825Z,1.73
2018-10-02T18:06:06.668Z,1.47
2018-10-02T18:08:45.297Z,1.50
2018-10-02T18:11:14.164Z,1.73
2018-10-02T18:13:43.005Z,1.53
2018-10-02T18:16:12.222Z,1.53
2018-10-02T18:18:41.065Z,1.43
2018-10-02T18:21:09.885Z,1.90
2018-10-02T18:23:38.765Z,1.63
2018-10-02T18:26:07.792Z,1.80
2018-10-02T18:28:36.839Z,1.63
2018-10-02T18:31:05.620Z,2.00
2018-10-02T18:33:34.986Z,1.97
2018-10-02T18:36:03.805Z,1.57
2018-10-02T18:38:32.664Z,2.33
2018-10-02T18:41:01.733Z,1.93
2018-10-02T18:43:30.696Z,1.70
2018-10-02T18:45:59.543Z,1.83
2018-10-02T18:48:28.463Z,1.80
2018-10-02T18:50:57.416Z,1.73
2018-10-02T18:53:26.260Z,1.80
2018-10-02T18:55:55.041Z,1.93
2018-10-02T18:58:23.942Z,1.87
2018-10-02T19:00:52.842Z,1.97
2018-10-02T19:03:21.975Z,1.97
2018-10-02T19:05:50.841Z,1.80
2018-10-02T19:08:24.792Z,2.13
2018-10-02T19:10:53.704Z,1.80
2018-10-02T19:13:22.536Z,1.77
2018-10-02T19:15:56.547Z,1.67
2018-10-02T19:18:25.370Z,1.93
2018-10-02T19:20:54.167Z,2.00
2018-10-02T19:23:23.009Z,2.07
2018-10-02T19:25:57.113Z,1.90
2018-10-02T19:28:25.933Z,1.83
2018-10-02T19:30:59.944Z,2.20
2018-10-02T19:33:28.781Z,1.90
2018-10-02T19:35:57.565Z,1.73
2018-10-02T19:38:31.586Z,1.80
2018-10-02T19:41:00.390Z,1.80
2018-10-02T19:43:29.289Z,2.10
2018-10-02T19:46:03.269Z,2.10
2018-10-02T19:48:32.129Z,2.30
2018-10-02T19:51:06.093Z,2.03
2018-10-02T19:53:34.938Z,1.80
2018-10-02T19:56:03.766Z,2.47
2018-10-02T19:58:32.654Z,1.90
2018-10-02T20:01:01.428Z,2.20
2018-10-02T20:03:30.304Z,2.00
2018-10-02T20:05:59.461Z,2.10
2018-10-02T20:08:28.289Z,2.50
2018-10-02T20:10:57.097Z,1.97
2018-10-02T20:13:26.043Z,2.00
2018-10-02T20:15:54.842Z,2.20
2018-10-02T20:18:23.681Z,2.03
2018-10-02T20:20:52.474Z,2.47
2018-10-02T20:23:21.297Z,2.20
2018-10-02T20:25:50.078Z,2.10
2018-10-02T20:28:18.889Z,2.40
2018-10-02T20:30:47.677Z,2.40
2018-10-02T20:33:16.691Z,2.40
2018-10-02T20:35:45.478Z,2.90
2018-10-02T20:38:14.625Z,2.73
2018-10-02T20:40:43.770Z,2.67
2018-10-02T20:43:12.585Z,2.40
2018-10-02T20:45:41.455Z,2.37
2018-10-02T20:48:10.753Z,2.33
2018-10-02T20:50:39.609Z,2.43
2018-10-02T20:53:08.463Z,2.80
2018-10-02T20:55:37.469Z,2.50
2018-10-02T20:58:06.970Z,2.70
2018-10-02T21:00:36.026Z,2.40
2018-10-02T21:03:05.147Z,2.30
2018-10-02T21:05:34.198Z,2.67
2018-10-02T21:08:03.261Z,2.37
2018-10-02T21:10:33.531Z,2.70
2018-10-02T21:13:02.645Z,2.60
2018-10-02T21:15:31.933Z,2.63
2018-10-02T21:18:00.914Z,2.60
2018-10-02T21:20:30.009Z,2.30
2018-10-02T21:22:59.106Z,2.70
2018-10-02T21:25:28.222Z,2.73
2018-10-02T21:27:57.303Z,2.80
2018-10-02T21:30:26.402Z,2.87
2018-10-02T21:32:55.430Z,3.27
2018-10-02T21:35:24.634Z,3.00
2018-10-02T21:37:53.680Z,2.83
2018-10-02T21:40:22.885Z,3.33
2018-10-02T21:42:51.962Z,2.93
2018-10-02T21:45:21.043Z,2.90
2018-10-02T21:47:50.115Z,3.10
2018-10-02T21:50:19.210Z,3.33
2018-10-02T21:52:48.185Z,3.33
2018-10-02T21:55:17.229Z,3.23
2018-10-02T21:57:46.390Z,3.50
2018-10-02T22:00:15.586Z,3.83
2018-10-02T22:02:44.541Z,3.27
2018-10-02T22:05:13.374Z,3.23
2018-10-02T22:07:42.166Z,3.47
2018-10-02T22:10:11.001Z,3.30
2018-10-02T22:12:39.838Z,3.43
2018-10-02T22:15:08.750Z,3.10
2018-10-02T22:17:37.554Z,3.60
2018-10-02T22:20:06.469Z,3.47
2018-10-02T22:22:35.261Z,3.40
2018-10-02T22:25:04.170Z,3.80
2018-10-02T22:27:32.968Z,3.50
2018-10-02T22:30:03.321Z,3.77
2018-10-02T22:32:32.507Z,3.60
2018-10-02T22:35:01.745Z,3.70
2018-10-02T22:37:30.553Z,3.90
2018-10-02T22:39:59.388Z,3.47
2018-10-02T22:42:28.231Z,3.90
2018-10-02T22:44:57.057Z,4.23
2018-10-02T22:47:25.877Z,3.80
2018-10-02T22:49:54.728Z,3.90
2018-10-02T22:52:23.538Z,3.60
2018-10-02T22:54:52.354Z,3.57
2018-10-02T22:57:21.137Z,3.93
2018-10-02T22:59:50.025Z,3.97
2018-10-02T23:02:18.840Z,4.00
2018-10-02T23:04:47.624Z,3.90
2018-10-02T23:07:16.463Z,4.03
2018-10-02T23:09:45.242Z,4.00
2018-10-02T23:12:14.097Z,3.83
2018-10-02T23:14:42.905Z,3.80
2018-10-02T23:17:11.732Z,4.13
2018-10-02T23:19:40.522Z,3.73
2018-10-02T23:22:09.374Z,3.70
2018-10-02T23:24:38.263Z,3.77
2018-10-02T23:27:07.318Z,4.30
2018-10-02T23:29:36.381Z,3.57
2018-10-02T23:32:05.545Z,3.90
2018-10-02T23:34:34.641Z,4.27
2018-10-02T23:37:03.786Z,4.23
2018-10-02T23:39:32.880Z,3.70
2018-10-02T23:42:02.158Z,4.40
2018-10-02T23:44:31.203Z,3.87
2018-10-02T23:47:00.311Z,3.93
2018-10-02T23:49:29.410Z,3.80
2018-10-02T23:51:58.517Z,4.27
2018-10-02T23:54:27.565Z,4.17
2018-10-02T23:56:56.631Z,4.50
2018-10-02T23:59:25.740Z,4.03
